Архив погоды в Братолюбовке

Метеограмма Братолюбовка
Четверг, 16 Августа
Время местн. Темп Ветер Видим Явления Облачность нижн/средн/верх Атм. давл. Влжн Точка росы ВНГО R Сост. почвы Tg s
Напр Скр Прв ур.ст ур.м изм
06:00 +8.8° В 1 - 50 км - переменная облачность 745 766 +0.2 95% +8.1° 1.5 км - - - -
03:00 +9.7° штиль 0 - 50 км - ясно 745 766 +0.4 95% +9° более 2.5 км - - - -
00:00 +12° штиль 0 - 50 км - ясно 745 765 +0.2 93% +10.9° более 2.5 км - - - -
Среда, 15 Августа
Время местн. Темп Ветер Видим Явления Облачность нижн/средн/верх Атм. давл. Влжн Точка росы ВНГО R Сост. почвы Tg s
Напр Скр Прв ур.ст ур.м изм
21:00 +13.9° штиль 0 - 50 км - ясно 745 765 +1 92% +12.7° более 2.5 км 0 - - -
18:00 +22.5° С-В 1 - 50 км - переменная облачность 744 764 -0.2 55% +13° 1 км - - - -
15:00 +23.4° С-З 2 - более 50 км - облачно с прояснениями 744 764 -0.5 54% +13.6° 1.5 км - - - -
12:00 +21.6° С 1 - 50 км - облачно с прояснениями 744 764 +0.1 62% +14.1° 1.5 км - - - -
09:00 +18.2° Ю-З 1 - более 50 км - ясно 744 764 +1 78% +14.3° более 2.5 км 0 Сухая (без трещин) +10° -
06:00 +10° штиль 0 - более 50 км - ясно 743 764 +1.1 95% +9.2° более 2.5 км - - - -
03:00 +11.4° В 1 - 25 км - ясно 742 763 +0.3 95% +10.6° более 2.5 км - - - -
00:00 +13.8° штиль 0 - 50 км - переменная облачность 742 762 +0.4 92% +12.6° более 2.5 км - - - -
Вторник, 14 Августа
Время местн. Темп Ветер Видим Явления Облачность нижн/средн/верх Атм. давл. Влжн Точка росы ВНГО R Сост. почвы Tg s
Напр Скр Прв ур.ст ур.м изм
21:00 +15.9° С-З 1 - 50 км ливневый дождь преимущественно облачно 741 762 +1.1 86% +13.5° 1 км 0.5 - - -
18:00 +21.2° С,С-В 1 - более 50 км - преимущественно облачно 740 760 -0.1 66% +14.7° 1 км - - - -
15:00 +25° С-В 2 - 50 км - облачно с прояснениями 740 760 -0.3 37% +9.5° 1 км - - - -
12:00 +22.9° В 1 - более 50 км - переменная облачность 740 760 +0.2 52% +12.5° более 2.5 км - - - -
09:00 +18.9° В 1 - 50 км - переменная облачность 740 760 +0.4 71% +13.5° - 0 Влажная (без луж) - -
06:00 +14° З 1 - более 50 км - преимущественно облачно 740 760 +0.3 90% +12.4° 1 км - - - -
03:00 +12.8° штиль 0 - 50 км - облачно с прояснениями 740 760 +0.5 94% +11.8° более 2.5 км - - - -
00:00 +12.3° В,Ю-В 1 - 50 км - ясно 739 760 +0.4 94% +11.4° более 2.5 км - - - -
Понедельник, 13 Августа
Время местн. Темп Ветер Видим Явления Облачность нижн/средн/верх Атм. давл. Влжн Точка росы ВНГО R Сост. почвы Tg s
Напр Скр Прв ур.ст ур.м изм
21:00 +14.9° В 1 - 50 км - незначительная облачность 739 759 +0.6 90% +13.2° 1 км 0 - - -
18:00 +23.7° С,С-В 1 - более 50 км - ясно 738 758 +0.1 52% +13.2° более 2.5 км - - - -
15:00 +24.1° З,С-З 1 - 50 км - незначительная облачность 738 758 -0.4 41% +10.1° 1.5 км - - - -
12:00 +23.4° В 1 - 50 км - переменная облачность 739 758 0 47% +11.5° - - - - -
09:00 +18.1° З 1 - более 50 км - ясно 739 759 +0.5 78% +14.2° более 2.5 км 0 Влажная (без луж) +10° -
06:00 +10.5° штиль 0 - 4.1 км дымка незначительная облачность 738 759 +0.2 95% +9.8° более 2.5 км - - - -
03:00 +11.3° З 1 - 5 км дымка ясно 738 759 +0.4 95% +10.5° более 2.5 км - - - -